createdAt,value
2017-08-15T00:01:21.712Z,18.21
2017-08-15T00:03:49.305Z,18.14
2017-08-15T00:06:16.938Z,18.08
2017-08-15T00:08:44.532Z,18.06
2017-08-15T00:11:12.173Z,18.04
2017-08-15T00:13:39.961Z,18.03
2017-08-15T00:16:07.567Z,18.03
2017-08-15T00:18:35.158Z,18.00
2017-08-15T00:21:02.902Z,17.93
2017-08-15T00:23:30.673Z,17.88
2017-08-15T00:25:58.605Z,17.81
2017-08-15T00:28:26.226Z,17.76
2017-08-15T00:30:53.851Z,17.71
2017-08-15T00:33:21.491Z,17.69
2017-08-15T00:35:49.184Z,17.66
2017-08-15T00:38:16.847Z,17.65
2017-08-15T00:40:44.444Z,17.63
2017-08-15T00:43:12.085Z,17.60
2017-08-15T00:45:39.745Z,17.57
2017-08-15T00:48:07.381Z,17.54
2017-08-15T00:50:35.084Z,17.49
2017-08-15T00:53:02.707Z,17.46
2017-08-15T00:55:30.303Z,17.44
2017-08-15T00:57:58.245Z,17.42
2017-08-15T01:00:25.826Z,17.42
2017-08-15T01:02:55.582Z,17.39
2017-08-15T01:05:23.218Z,17.39
2017-08-15T01:07:50.833Z,17.38
2017-08-15T01:10:18.463Z,17.36
2017-08-15T01:12:46.293Z,17.35
2017-08-15T01:15:13.915Z,17.32
2017-08-15T01:17:41.635Z,17.30
2017-08-15T01:20:09.250Z,17.27
2017-08-15T01:22:36.824Z,17.24
2017-08-15T01:25:04.861Z,17.21
2017-08-15T01:27:32.789Z,17.21
2017-08-15T01:30:00.509Z,17.22
2017-08-15T01:32:28.298Z,17.23
2017-08-15T01:34:55.892Z,17.23
2017-08-15T01:37:23.608Z,17.24
2017-08-15T01:39:51.318Z,17.25
2017-08-15T01:42:18.940Z,17.26
2017-08-15T01:44:46.553Z,17.25
2017-08-15T01:47:14.193Z,17.22
2017-08-15T01:49:41.808Z,17.18
2017-08-15T01:52:09.762Z,17.16
2017-08-15T01:54:37.354Z,17.15
2017-08-15T01:57:04.970Z,17.10
2017-08-15T01:59:32.593Z,17.09
2017-08-15T02:02:00.216Z,17.09
2017-08-15T02:04:27.895Z,17.11
2017-08-15T02:06:55.609Z,17.12
2017-08-15T02:09:23.329Z,17.11
2017-08-15T02:11:50.940Z,17.10
2017-08-15T02:14:18.647Z,17.11
2017-08-15T02:16:46.243Z,17.10
2017-08-15T02:19:14.148Z,17.06
2017-08-15T02:21:41.741Z,17.05
2017-08-15T02:24:09.343Z,17.11
2017-08-15T02:26:37.051Z,17.14
2017-08-15T02:29:04.651Z,17.16
2017-08-15T02:31:32.273Z,17.15
2017-08-15T02:33:59.862Z,17.15
2017-08-15T02:36:27.467Z,17.10
2017-08-15T02:38:55.056Z,17.10
2017-08-15T02:41:22.675Z,17.06
2017-08-15T02:43:50.258Z,17.02
2017-08-15T02:46:18.214Z,16.94
2017-08-15T02:48:45.816Z,16.93
2017-08-15T02:51:13.415Z,16.90
2017-08-15T02:53:41.112Z,16.89
2017-08-15T02:56:08.805Z,16.91
2017-08-15T02:58:36.417Z,16.96
2017-08-15T03:01:04.011Z,17.00
2017-08-15T03:03:31.627Z,17.02
2017-08-15T03:05:59.219Z,17.02
2017-08-15T03:08:27.188Z,17.01
2017-08-15T03:10:54.767Z,17.02
2017-08-15T03:13:22.369Z,17.04
2017-08-15T03:15:50.002Z,17.04
2017-08-15T03:18:17.581Z,17.01
2017-08-15T03:20:45.180Z,16.98
2017-08-15T03:23:12.789Z,16.95
2017-08-15T03:25:40.409Z,16.95
2017-08-15T03:28:07.997Z,16.94
2017-08-15T03:30:36.166Z,16.92
2017-08-15T03:33:03.742Z,16.90
2017-08-15T03:35:31.318Z,16.86
2017-08-15T03:37:58.938Z,16.83
2017-08-15T03:40:26.535Z,16.81
2017-08-15T03:42:54.137Z,16.79
2017-08-15T03:45:21.731Z,16.77
2017-08-15T03:47:49.352Z,16.75
2017-08-15T03:50:17.783Z,16.75
2017-08-15T03:52:45.434Z,16.75
2017-08-15T03:55:13.015Z,16.73
2017-08-15T03:57:40.880Z,16.72
2017-08-15T04:00:08.651Z,16.71
2017-08-15T04:02:36.251Z,16.68
2017-08-15T04:05:03.907Z,16.68
2017-08-15T04:07:31.498Z,16.68
2017-08-15T04:09:59.113Z,16.66
2017-08-15T04:12:26.727Z,16.63
2017-08-15T04:14:54.329Z,16.59
2017-08-15T04:17:21.922Z,16.56
2017-08-15T04:19:49.553Z,16.56
2017-08-15T04:22:17.145Z,16.52
2017-08-15T04:24:45.132Z,16.50
2017-08-15T04:27:12.773Z,16.50
2017-08-15T04:29:40.381Z,16.51
2017-08-15T04:32:08.020Z,16.49
2017-08-15T04:34:35.608Z,16.49
2017-08-15T04:37:03.218Z,16.50
2017-08-15T04:39:30.828Z,16.50
2017-08-15T04:41:58.694Z,16.52
2017-08-15T04:44:26.316Z,16.54
2017-08-15T04:46:53.966Z,16.56
2017-08-15T04:49:21.560Z,16.57
2017-08-15T04:51:49.430Z,16.63
2017-08-15T04:54:17.028Z,16.67
2017-08-15T04:56:44.766Z,16.66
2017-08-15T04:59:12.391Z,16.69
2017-08-15T05:01:39.989Z,16.66
2017-08-15T05:04:07.598Z,16.67
2017-08-15T05:06:35.214Z,16.70
2017-08-15T05:09:02.793Z,16.74
2017-08-15T05:11:30.359Z,16.77
2017-08-15T05:13:58.047Z,16.79
2017-08-15T05:16:25.616Z,16.80
2017-08-15T05:18:53.703Z,16.78
2017-08-15T05:21:21.289Z,16.83
2017-08-15T05:23:48.868Z,16.90
2017-08-15T05:26:16.462Z,16.99
2017-08-15T05:28:44.061Z,17.05
2017-08-15T05:31:11.648Z,17.45
2017-08-15T05:33:39.250Z,17.85
2017-08-15T05:36:06.881Z,17.87
2017-08-15T05:38:34.465Z,17.78
2017-08-15T05:41:02.373Z,17.69
2017-08-15T05:43:29.950Z,17.66
2017-08-15T05:45:57.539Z,17.64
2017-08-15T05:48:25.371Z,17.63
2017-08-15T05:50:52.970Z,17.66
2017-08-15T05:53:20.563Z,17.69
2017-08-15T05:55:48.164Z,17.72
2017-08-15T05:58:15.765Z,17.77
2017-08-15T06:00:43.359Z,17.81
2017-08-15T06:03:10.985Z,17.87
2017-08-15T06:05:38.578Z,17.91
2017-08-15T06:08:06.204Z,17.98
2017-08-15T06:10:34.479Z,18.06
2017-08-15T06:13:02.057Z,18.13
2017-08-15T06:15:29.653Z,18.20
2017-08-15T06:17:57.241Z,18.27
2017-08-15T06:20:24.815Z,18.33
2017-08-15T06:22:52.406Z,18.39
2017-08-15T06:25:20.388Z,18.44
2017-08-15T06:27:47.976Z,18.51
2017-08-15T06:30:15.552Z,18.58
2017-08-15T06:32:43.251Z,18.62
2017-08-15T06:35:10.869Z,18.69
2017-08-15T06:37:38.487Z,18.72
2017-08-15T06:40:06.076Z,18.79
2017-08-15T06:42:33.703Z,18.87
2017-08-15T06:45:01.294Z,18.96
2017-08-15T06:47:28.890Z,19.03
2017-08-15T06:49:56.471Z,19.12
2017-08-15T06:52:24.348Z,19.21
2017-08-15T06:54:51.926Z,19.27
2017-08-15T06:57:19.511Z,19.35
2017-08-15T06:59:47.112Z,19.47
2017-08-15T07:02:14.689Z,19.55
2017-08-15T07:04:42.533Z,19.62
2017-08-15T07:07:10.136Z,19.70
2017-08-15T07:09:37.753Z,19.79
2017-08-15T07:12:05.372Z,19.84
2017-08-15T07:14:33.000Z,19.90
2017-08-15T07:17:00.613Z,19.94
2017-08-15T07:19:29.196Z,19.96
2017-08-15T07:21:56.829Z,20.05
2017-08-15T07:24:24.429Z,20.13
2017-08-15T07:26:52.026Z,20.22
2017-08-15T07:29:19.758Z,20.31
2017-08-15T07:31:47.859Z,20.39
2017-08-15T07:34:15.478Z,20.43
2017-08-15T07:36:43.847Z,20.51
2017-08-15T07:39:11.867Z,20.59
2017-08-15T07:41:39.692Z,20.68
2017-08-15T07:44:07.324Z,20.76
2017-08-15T07:46:34.924Z,20.80
2017-08-15T07:49:02.718Z,20.91
2017-08-15T07:51:30.412Z,21.00
2017-08-15T07:53:59.197Z,21.05
2017-08-15T07:56:27.873Z,21.14
2017-08-15T07:58:56.047Z,21.26
2017-08-15T08:01:23.658Z,21.41
2017-08-15T08:03:51.261Z,21.51
2017-08-15T08:06:20.141Z,21.61
2017-08-15T08:08:47.974Z,21.67
2017-08-15T08:11:17.143Z,21.68
2017-08-15T08:13:44.711Z,21.74
2017-08-15T08:16:12.352Z,21.83
2017-08-15T08:18:39.969Z,21.94
2017-08-15T08:21:08.853Z,22.01
2017-08-15T08:23:36.438Z,22.10
2017-08-15T08:26:04.462Z,22.17
2017-08-15T08:28:32.592Z,22.19
2017-08-15T08:31:00.189Z,22.27
2017-08-15T08:33:27.805Z,22.35
2017-08-15T08:35:55.689Z,22.46
2017-08-15T08:38:24.538Z,22.58
2017-08-15T08:40:52.133Z,22.71
2017-08-15T08:43:27.179Z,22.84
2017-08-15T08:45:55.769Z,22.94
2017-08-15T08:48:23.382Z,23.00
2017-08-15T08:50:51.416Z,23.09
2017-08-15T08:58:56.097Z,23.44
2017-08-15T09:01:23.691Z,23.53
2017-08-15T09:03:51.326Z,23.62
2017-08-15T09:06:20.560Z,23.69
2017-08-15T09:08:48.293Z,23.79
2017-08-15T09:11:15.909Z,23.82
2017-08-15T09:13:43.530Z,23.88
2017-08-15T09:16:11.162Z,23.96
2017-08-15T09:18:38.746Z,24.09
2017-08-15T09:21:06.359Z,24.15
2017-08-15T09:23:34.128Z,24.26
2017-08-15T09:26:02.119Z,24.33
2017-08-15T09:28:29.705Z,24.40
2017-08-15T09:30:57.453Z,24.46
2017-08-15T09:33:25.197Z,24.52
2017-08-15T09:35:52.778Z,24.65
2017-08-15T09:38:20.400Z,24.77
2017-08-15T09:40:47.985Z,24.88
2017-08-15T09:43:15.674Z,24.85
2017-08-15T09:45:43.285Z,24.84
2017-08-15T09:48:10.879Z,24.87
2017-08-15T09:50:38.965Z,24.94
2017-08-15T09:53:06.910Z,25.07
2017-08-15T09:55:34.509Z,25.15
2017-08-15T09:58:08.056Z,25.23
2017-08-15T10:00:35.668Z,25.25
2017-08-15T10:03:03.886Z,25.42
2017-08-15T10:05:31.497Z,25.53
2017-08-15T10:07:59.100Z,25.66
2017-08-15T10:10:26.757Z,25.76
2017-08-15T10:12:54.358Z,25.79
2017-08-15T10:15:22.115Z,25.80
2017-08-15T10:17:49.717Z,25.95
2017-08-15T10:20:17.661Z,26.06
2017-08-15T10:22:45.252Z,26.04
2017-08-15T10:25:12.850Z,26.04
2017-08-15T10:27:40.500Z,26.10
2017-08-15T10:30:08.200Z,26.17
2017-08-15T10:32:35.848Z,26.17
2017-08-15T10:35:03.497Z,26.19
2017-08-15T10:37:31.111Z,26.30
2017-08-15T10:39:58.737Z,26.35
2017-08-15T10:42:26.381Z,26.40
2017-08-15T10:44:53.980Z,26.42
2017-08-15T10:47:21.928Z,26.40
2017-08-15T10:49:49.693Z,26.50
2017-08-15T10:52:17.449Z,26.70
2017-08-15T10:54:45.054Z,26.77
2017-08-15T10:57:12.658Z,26.71
2017-08-15T10:59:40.274Z,26.74
2017-08-15T11:02:07.876Z,26.83
2017-08-15T11:04:35.490Z,26.86
2017-08-15T11:07:03.096Z,26.92
2017-08-15T11:09:30.705Z,26.96
2017-08-15T11:11:58.346Z,27.06
2017-08-15T11:14:26.148Z,27.07
2017-08-15T11:16:53.758Z,27.01
2017-08-15T11:19:21.834Z,27.06
2017-08-15T11:21:49.422Z,27.10
2017-08-15T11:24:17.001Z,27.28
2017-08-15T11:26:44.673Z,27.42
2017-08-15T11:29:12.292Z,27.45
2017-08-15T11:31:39.932Z,27.64
2017-08-15T11:34:10.244Z,27.68
2017-08-15T11:36:37.910Z,27.63
2017-08-15T11:39:05.539Z,27.68
2017-08-15T11:41:33.189Z,27.85
2017-08-15T11:44:00.929Z,28.00
2017-08-15T11:46:28.549Z,27.92
2017-08-15T11:48:56.158Z,27.87
2017-08-15T11:51:24.539Z,27.98
2017-08-15T11:53:52.225Z,28.28
2017-08-15T11:56:19.851Z,28.26
2017-08-15T11:58:48.345Z,28.31
2017-08-15T12:01:20.474Z,28.29
2017-08-15T12:03:48.135Z,28.29
2017-08-15T12:06:15.830Z,28.34
2017-08-15T12:08:43.790Z,28.40
2017-08-15T12:11:11.402Z,28.31
2017-08-15T12:13:39.020Z,28.49
2017-08-15T12:16:06.646Z,28.65
2017-08-15T12:18:34.269Z,28.78
2017-08-15T12:21:02.348Z,28.71
2017-08-15T12:23:29.940Z,28.70
2017-08-15T12:25:57.605Z,28.86
2017-08-15T12:28:25.896Z,28.89
2017-08-15T12:30:53.708Z,28.85
2017-08-15T12:33:21.350Z,28.81
2017-08-15T12:35:48.978Z,28.74
2017-08-15T12:38:18.940Z,28.82
2017-08-15T12:40:46.604Z,28.87
2017-08-15T12:43:14.515Z,28.89
2017-08-15T12:45:42.151Z,28.99
2017-08-15T12:48:11.192Z,29.15
2017-08-15T12:50:38.838Z,29.26
2017-08-15T12:53:06.437Z,29.45
2017-08-15T12:55:34.381Z,29.51
2017-08-15T12:58:02.247Z,29.60
2017-08-15T13:00:29.840Z,29.75
2017-08-15T13:02:57.462Z,29.88
2017-08-15T13:05:25.067Z,29.92
2017-08-15T13:07:53.151Z,29.81
2017-08-15T13:10:20.767Z,29.88
2017-08-15T13:12:48.357Z,30.05
2017-08-15T13:15:16.018Z,30.10
2017-08-15T13:17:43.717Z,30.19
2017-08-15T13:20:11.629Z,29.97
2017-08-15T13:22:39.234Z,30.07
2017-08-15T13:25:06.841Z,30.02
2017-08-15T13:27:34.495Z,29.84
2017-08-15T13:30:02.099Z,29.95
2017-08-15T13:32:30.010Z,30.16
2017-08-15T13:34:57.626Z,30.31
2017-08-15T13:37:25.526Z,30.27
2017-08-15T13:39:53.146Z,30.36
2017-08-15T13:42:20.751Z,30.40
2017-08-15T13:44:48.377Z,30.39
2017-08-15T13:47:16.018Z,30.58
2017-08-15T13:49:43.815Z,30.66
2017-08-15T13:52:11.429Z,30.92
2017-08-15T13:54:39.443Z,31.16
2017-08-15T13:57:07.057Z,31.17
2017-08-15T13:59:34.670Z,31.16
2017-08-15T14:02:02.332Z,31.14
2017-08-15T14:04:30.142Z,31.17
2017-08-15T14:06:57.843Z,31.06
2017-08-15T14:09:26.693Z,31.15
2017-08-15T14:11:54.682Z,31.35
2017-08-15T14:14:22.302Z,31.52
2017-08-15T14:16:49.938Z,31.39
2017-08-15T14:19:17.618Z,31.47
2017-08-15T14:21:45.244Z,31.74
2017-08-15T14:24:13.131Z,31.61
2017-08-15T14:26:40.745Z,31.25
2017-08-15T14:29:08.813Z,31.08
2017-08-15T14:31:36.540Z,31.60
2017-08-15T14:34:04.204Z,32.18
2017-08-15T14:36:31.850Z,31.74
2017-08-15T14:38:59.655Z,30.97
2017-08-15T14:41:27.248Z,30.72
2017-08-15T14:43:55.819Z,31.16
2017-08-15T14:46:23.802Z,32.16
2017-08-15T14:48:51.507Z,33.03
2017-08-15T14:51:19.188Z,33.57
2017-08-15T14:53:46.802Z,33.92
2017-08-15T14:56:14.731Z,34.07
2017-08-15T14:58:42.758Z,33.23
2017-08-15T15:01:10.328Z,32.52
2017-08-15T15:03:38.022Z,32.86
2017-08-15T15:06:05.629Z,33.44
2017-08-15T15:08:33.245Z,33.45
2017-08-15T15:11:02.037Z,33.31
2017-08-15T15:13:29.673Z,32.66
2017-08-15T15:15:57.711Z,32.75
2017-08-15T15:18:26.962Z,33.01
2017-08-15T15:20:54.950Z,33.18
2017-08-15T15:23:22.662Z,33.01
2017-08-15T15:25:50.259Z,33.51
2017-08-15T15:28:17.874Z,33.83
2017-08-15T15:30:45.605Z,33.83
2017-08-15T15:33:13.512Z,33.97
2017-08-15T15:35:41.096Z,34.13
2017-08-15T15:38:08.725Z,34.09
2017-08-15T15:40:36.430Z,34.12
2017-08-15T15:43:04.040Z,34.09
2017-08-15T15:45:31.774Z,33.92
2017-08-15T15:47:59.379Z,33.71
2017-08-15T15:50:27.328Z,33.55
2017-08-15T15:52:54.953Z,33.58
2017-08-15T15:55:22.571Z,33.40
2017-08-15T15:57:50.278Z,32.89
2017-08-15T16:00:17.905Z,32.82
2017-08-15T16:02:45.808Z,32.86
2017-08-15T16:05:15.743Z,32.67
2017-08-15T16:07:43.686Z,32.25
2017-08-15T16:10:11.412Z,31.88
2017-08-15T16:12:39.004Z,31.71
2017-08-15T16:15:07.948Z,31.49
2017-08-15T16:17:35.613Z,31.36
2017-08-15T16:20:04.096Z,31.20
2017-08-15T16:22:31.737Z,30.98
2017-08-15T16:24:59.491Z,30.59
2017-08-15T16:27:27.125Z,30.42
2017-08-15T16:29:56.073Z,30.50
2017-08-15T16:32:23.709Z,30.49
2017-08-15T16:34:51.414Z,30.41
2017-08-15T16:37:19.038Z,30.41
2017-08-15T16:39:46.643Z,30.41
2017-08-15T16:42:14.568Z,30.40
2017-08-15T16:44:42.196Z,30.26
2017-08-15T16:47:09.773Z,30.23
2017-08-15T16:49:37.390Z,30.16
2017-08-15T16:52:04.992Z,30.10
2017-08-15T16:54:32.633Z,30.00
2017-08-15T16:59:34.639Z,29.71
2017-08-15T17:02:02.334Z,29.61
2017-08-15T17:04:30.262Z,29.51
2017-08-15T17:06:57.904Z,29.46
2017-08-15T17:09:25.507Z,29.44
2017-08-15T17:11:53.496Z,29.45
2017-08-15T17:14:21.092Z,29.37
2017-08-15T17:16:48.732Z,29.31
2017-08-15T17:19:16.505Z,29.14
2017-08-15T17:21:44.229Z,29.06
2017-08-15T17:24:12.079Z,29.01
2017-08-15T17:26:39.690Z,28.97
2017-08-15T17:29:07.627Z,28.93
2017-08-15T17:31:35.212Z,28.87
2017-08-15T17:34:02.845Z,28.80
2017-08-15T17:36:30.561Z,28.71
2017-08-15T17:38:58.199Z,28.61
2017-08-15T17:41:25.831Z,28.52
2017-08-15T17:43:53.433Z,28.43
2017-08-15T17:46:21.136Z,28.29
2017-08-15T17:48:48.742Z,28.18
2017-08-15T17:51:16.699Z,28.06
2017-08-15T17:53:44.280Z,27.98
2017-08-15T17:56:11.900Z,27.88
2017-08-15T17:58:39.679Z,27.71
2017-08-15T18:01:07.338Z,27.48
2017-08-15T18:03:35.091Z,27.23
2017-08-15T18:06:02.728Z,27.08
2017-08-15T18:08:30.628Z,26.85
2017-08-15T18:10:58.258Z,26.64
2017-08-15T18:13:25.883Z,26.47
2017-08-15T18:15:53.565Z,26.30
2017-08-15T18:18:21.154Z,26.20
2017-08-15T18:20:48.929Z,26.08
2017-08-15T18:23:16.536Z,26.00
2017-08-15T18:25:44.478Z,25.94
2017-08-15T18:28:12.087Z,25.84
2017-08-15T18:30:39.697Z,25.77
2017-08-15T18:33:07.341Z,25.70
2017-08-15T18:35:35.061Z,25.66
2017-08-15T18:38:02.694Z,25.59
2017-08-15T18:40:30.331Z,25.47
2017-08-15T18:42:58.245Z,25.37
2017-08-15T18:45:25.832Z,25.32
2017-08-15T18:47:53.463Z,25.26
2017-08-15T18:50:29.965Z,25.16
2017-08-15T18:52:57.717Z,25.05
2017-08-15T18:55:26.423Z,24.94
2017-08-15T18:57:54.050Z,24.85
2017-08-15T19:00:21.681Z,24.79
2017-08-15T19:02:49.308Z,24.67
2017-08-15T19:05:16.922Z,24.58
2017-08-15T19:07:44.556Z,24.49
2017-08-15T19:10:12.273Z,24.39
2017-08-15T19:12:39.905Z,24.33
2017-08-15T19:15:07.620Z,24.26
2017-08-15T19:17:35.243Z,24.18
2017-08-15T19:20:02.914Z,24.09
2017-08-15T19:22:30.526Z,24.02
2017-08-15T19:24:58.578Z,23.93
2017-08-15T19:27:26.205Z,23.86
2017-08-15T19:29:53.800Z,23.80
2017-08-15T19:32:21.456Z,23.74
2017-08-15T19:34:49.052Z,23.71
2017-08-15T19:37:16.679Z,23.68
2017-08-15T19:39:44.268Z,23.67
2017-08-15T19:42:11.886Z,23.63
2017-08-15T19:44:39.638Z,23.60
2017-08-15T19:47:07.602Z,23.62
2017-08-15T19:49:35.284Z,23.62
2017-08-15T19:52:02.917Z,23.58
2017-08-15T19:54:30.615Z,23.52
2017-08-15T19:56:58.236Z,23.46
2017-08-15T19:59:25.847Z,23.41
2017-08-15T20:01:53.489Z,23.30
2017-08-15T20:04:21.106Z,23.25
2017-08-15T20:06:48.728Z,23.20
2017-08-15T20:09:16.342Z,23.16
2017-08-15T20:11:44.796Z,23.17
2017-08-15T20:14:13.440Z,23.15
2017-08-15T20:16:41.091Z,23.12
2017-08-15T20:19:08.796Z,23.07
2017-08-15T20:21:36.496Z,23.02
2017-08-15T20:24:04.139Z,23.02
2017-08-15T20:26:31.742Z,23.02
2017-08-15T20:28:59.685Z,22.99
2017-08-15T20:31:27.311Z,22.91
2017-08-15T20:33:54.914Z,22.79
2017-08-15T20:36:22.538Z,22.75
2017-08-15T20:38:50.146Z,22.75
2017-08-15T20:41:17.786Z,22.75
2017-08-15T20:43:45.399Z,22.78
2017-08-15T20:46:13.431Z,22.78
2017-08-15T20:48:41.087Z,22.78
2017-08-15T20:51:08.692Z,22.74
2017-08-15T20:53:36.446Z,22.72
2017-08-15T20:56:04.044Z,22.73
2017-08-15T20:58:31.689Z,22.75
2017-08-15T21:00:59.315Z,22.74
2017-08-15T21:03:27.264Z,22.73
2017-08-15T21:05:54.868Z,22.71
2017-08-15T21:08:22.477Z,22.69
2017-08-15T21:10:50.086Z,22.67
2017-08-15T21:13:17.700Z,22.62
2017-08-15T21:15:45.311Z,22.56
2017-08-15T21:18:13.055Z,22.50
2017-08-15T21:20:41.104Z,22.46
2017-08-15T21:23:08.914Z,22.43
2017-08-15T21:25:36.497Z,22.36
2017-08-15T21:28:04.119Z,22.30
2017-08-15T21:30:31.743Z,22.28
2017-08-15T21:32:59.449Z,22.28
2017-08-15T21:35:27.063Z,22.28
2017-08-15T21:37:55.047Z,22.28
2017-08-15T21:40:22.654Z,22.29
2017-08-15T21:42:50.299Z,22.29
2017-08-15T21:45:17.913Z,22.29
2017-08-15T21:47:45.540Z,22.26
2017-08-15T21:50:13.170Z,22.21
2017-08-15T21:52:40.780Z,22.19
2017-08-15T21:55:08.818Z,22.15
2017-08-15T21:57:36.423Z,22.15
2017-08-15T22:00:04.027Z,22.13
2017-08-15T22:02:31.661Z,22.11
2017-08-15T22:04:59.281Z,22.10
2017-08-15T22:07:26.931Z,22.09
2017-08-15T22:09:54.557Z,22.09
2017-08-15T22:12:22.443Z,22.09
2017-08-15T22:14:50.036Z,22.06
2017-08-15T22:17:17.627Z,22.05
2017-08-15T22:19:45.227Z,22.03
2017-08-15T22:22:12.837Z,22.04
2017-08-15T22:24:40.470Z,22.04
2017-08-15T22:27:08.101Z,22.06
2017-08-15T22:29:36.060Z,22.04
2017-08-15T22:32:03.692Z,22.05
2017-08-15T22:34:31.291Z,22.06
2017-08-15T22:36:59.075Z,22.05
2017-08-15T22:39:26.668Z,22.03
2017-08-15T22:41:54.296Z,22.00
2017-08-15T22:44:21.912Z,21.98
2017-08-15T22:46:49.902Z,21.98
2017-08-15T22:49:17.501Z,21.98
2017-08-15T22:51:45.087Z,21.98
2017-08-15T22:54:12.686Z,21.98
2017-08-15T22:56:40.286Z,21.97
2017-08-15T22:59:07.916Z,21.92
2017-08-15T23:01:35.553Z,21.87
2017-08-15T23:04:03.551Z,21.85
2017-08-15T23:06:31.236Z,21.80
2017-08-15T23:08:59.097Z,21.75
2017-08-15T23:11:26.756Z,21.69
2017-08-15T23:13:54.338Z,21.65
2017-08-15T23:16:21.956Z,21.63
2017-08-15T23:18:49.561Z,21.61
2017-08-15T23:21:17.493Z,21.64
2017-08-15T23:23:45.135Z,21.59
2017-08-15T23:26:12.759Z,21.56
2017-08-15T23:28:40.421Z,21.52
2017-08-15T23:31:08.196Z,21.55
2017-08-15T23:33:35.825Z,21.58
2017-08-15T23:36:03.415Z,21.65
2017-08-15T23:38:31.440Z,21.70
2017-08-15T23:40:59.047Z,21.72
2017-08-15T23:43:26.661Z,21.73
2017-08-15T23:45:54.348Z,21.69
2017-08-15T23:48:21.945Z,21.67
2017-08-15T23:50:49.556Z,21.62
2017-08-15T23:53:17.139Z,21.59
2017-08-15T23:55:45.055Z,21.50
2017-08-15T23:58:12.853Z,21.39
